sensor_id;sensor_type;location;lat;lon;timestamp;pressure;altitude;pressure_sealevel;temperature;humidity
3254;BME280;1639;42.804;23.342;2023-05-15T00:00:12;73166.69;;;-148.52;100.00
3254;BME280;1639;42.804;23.342;2023-05-15T00:02:38;73164.63;;;-148.52;100.00
3254;BME280;1639;42.804;23.342;2023-05-15T00:05:06;73177.03;;;-148.52;100.00
3254;BME280;1639;42.804;23.342;2023-05-15T00:07:33;73174.97;;;-148.52;100.00
3254;BME280;1639;42.804;23.342;2023-05-15T00:09:58;73191.53;;;-148.52;100.00
3254;BME280;1639;42.804;23.342;2023-05-15T00:12:24;73183.25;;;-148.52;100.00
3254;BME280;1639;42.804;23.342;2023-05-15T00:14:49;73203.94;;;-148.52;100.00
3254;BME280;1639;42.804;23.342;2023-05-15T00:17:14;73201.84;;;-148.52;100.00
3254;BME280;1639;42.804;23.342;2023-05-15T00:19:40;73210.13;;;-148.52;100.00
3254;BME280;1639;42.804;23.342;2023-05-15T00:22:05;73208.06;;;-148.52;100.00
3254;BME280;1639;42.804;23.342;2023-05-15T00:24:30;73185.31;;;-148.52;100.00
3254;BME280;1639;42.804;23.342;2023-05-15T00:26:56;73181.19;;;-148.52;100.00
3254;BME280;1639;42.804;23.342;2023-05-15T00:29:21;73172.91;;;-148.52;100.00
3254;BME280;1639;42.804;23.342;2023-05-15T00:31:47;73160.50;;;-148.52;100.00
3254;BME280;1639;42.804;23.342;2023-05-15T00:34:13;73154.28;;;-148.52;100.00
3254;BME280;1639;42.804;23.342;2023-05-15T00:36:38;73162.56;;;-148.52;100.00
3254;BME280;1639;42.804;23.342;2023-05-15T00:39:03;73154.28;;;-148.52;100.00
3254;BME280;1639;42.804;23.342;2023-05-15T00:41:29;73158.44;;;-148.52;100.00
3254;BME280;1639;42.804;23.342;2023-05-15T00:43:56;73156.34;;;-148.52;100.00
3254;BME280;1639;42.804;23.342;2023-05-15T00:46:24;73166.69;;;-148.52;100.00
3254;BME280;1639;42.804;23.342;2023-05-15T00:48:51;73170.84;;;-148.52;100.00
3254;BME280;1639;42.804;23.342;2023-05-15T00:51:17;73164.63;;;-148.52;100.00
3254;BME280;1639;42.804;23.342;2023-05-15T00:53:43;73158.44;;;-148.52;100.00
3254;BME280;1639;42.804;23.342;2023-05-15T00:56:10;73160.50;;;-148.52;100.00
3254;BME280;1639;42.804;23.342;2023-05-15T00:58:37;73158.44;;;-148.52;100.00
3254;BME280;1639;42.804;23.342;2023-05-15T01:01:02;73158.44;;;-148.52;100.00
3254;BME280;1639;42.804;23.342;2023-05-15T01:03:28;73166.69;;;-148.52;100.00
3254;BME280;1639;42.804;23.342;2023-05-15T01:05:53;73162.56;;;-148.52;100.00
3254;BME280;1639;42.804;23.342;2023-05-15T01:08:41;73170.84;;;-148.52;100.00
3254;BME280;1639;42.804;23.342;2023-05-15T01:11:11;73172.91;;;-148.52;100.00
3254;BME280;1639;42.804;23.342;2023-05-15T01:13:37;73168.75;;;-148.52;100.00
3254;BME280;1639;42.804;23.342;2023-05-15T01:16:03;73168.75;;;-148.52;100.00
3254;BME280;1639;42.804;23.342;2023-05-15T01:18:28;73166.69;;;-148.52;100.00
3254;BME280;1639;42.804;23.342;2023-05-15T01:29:13;73152.22;;;-148.52;100.00
3254;BME280;1639;42.804;23.342;2023-05-15T01:31:43;73160.50;;;-148.52;100.00
3254;BME280;1639;42.804;23.342;2023-05-15T01:34:12;73143.94;;;-148.52;100.00
3254;BME280;1639;42.804;23.342;2023-05-15T01:36:45;73177.03;;;-148.52;100.00
3254;BME280;1639;42.804;23.342;2023-05-15T01:39:15;73183.25;;;-148.52;100.00
3254;BME280;1639;42.804;23.342;2023-05-15T01:41:48;73160.50;;;-148.52;100.00
3254;BME280;1639;42.804;23.342;2023-05-15T01:44:26;73181.19;;;-148.52;100.00
3254;BME280;1639;42.804;23.342;2023-05-15T01:46:56;73162.56;;;-148.52;100.00
3254;BME280;1639;42.804;23.342;2023-05-15T01:49:25;73146.00;;;-148.52;100.00
3254;BME280;1639;42.804;23.342;2023-05-15T01:51:56;73129.47;;;-148.52;100.00
3254;BME280;1639;42.804;23.342;2023-05-15T01:54:23;73125.34;;;-148.52;100.00
3254;BME280;1639;42.804;23.342;2023-05-15T01:56:51;73115.00;;;-148.52;100.00
3254;BME280;1639;42.804;23.342;2023-05-15T01:59:18;73104.66;;;-148.52;100.00
3254;BME280;1639;42.804;23.342;2023-05-15T02:01:45;73092.25;;;-148.52;100.00
3254;BME280;1639;42.804;23.342;2023-05-15T02:04:12;73083.97;;;-148.52;100.00
3254;BME280;1639;42.804;23.342;2023-05-15T02:06:39;73092.25;;;-148.52;100.00
3254;BME280;1639;42.804;23.342;2023-05-15T02:09:05;73094.31;;;-148.52;100.00
3254;BME280;1639;42.804;23.342;2023-05-15T02:11:32;73088.09;;;-148.52;100.00
3254;BME280;1639;42.804;23.342;2023-05-15T02:13:57;73088.09;;;-148.52;100.00
3254;BME280;1639;42.804;23.342;2023-05-15T02:16:23;73088.09;;;-148.52;100.00
3254;BME280;1639;42.804;23.342;2023-05-15T02:18:49;73086.03;;;-148.52;100.00
3254;BME280;1639;42.804;23.342;2023-05-15T02:21:16;73092.25;;;-148.52;100.00
3254;BME280;1639;42.804;23.342;2023-05-15T02:23:42;73108.78;;;-148.52;100.00
3254;BME280;1639;42.804;23.342;2023-05-15T02:28:46;73139.81;;;-148.52;100.00
3254;BME280;1639;42.804;23.342;2023-05-15T02:31:22;73131.53;;;-148.52;100.00
3254;BME280;1639;42.804;23.342;2023-05-15T02:34:21;73125.34;;;-148.52;100.00
3254;BME280;1639;42.804;23.342;2023-05-15T02:36:51;73112.91;;;-148.52;100.00
3254;BME280;1639;42.804;23.342;2023-05-15T02:39:19;73119.13;;;-148.52;100.00
3254;BME280;1639;42.804;23.342;2023-05-15T02:41:48;73123.25;;;-148.52;100.00
3254;BME280;1639;42.804;23.342;2023-05-15T02:44:14;73133.59;;;-148.52;100.00
3254;BME280;1639;42.804;23.342;2023-05-15T02:46:41;73129.47;;;-148.52;100.00
3254;BME280;1639;42.804;23.342;2023-05-15T02:49:07;73135.66;;;-148.52;100.00
3254;BME280;1639;42.804;23.342;2023-05-15T02:51:33;73141.88;;;-148.52;100.00
3254;BME280;1639;42.804;23.342;2023-05-15T02:53:59;73121.19;;;-148.52;100.00
3254;BME280;1639;42.804;23.342;2023-05-15T02:56:25;73110.84;;;-148.52;100.00
3254;BME280;1639;42.804;23.342;2023-05-15T02:58:51;73119.13;;;-148.52;100.00
3254;BME280;1639;42.804;23.342;2023-05-15T03:01:16;73112.91;;;-148.52;100.00
3254;BME280;1639;42.804;23.342;2023-05-15T03:03:41;73092.25;;;-148.52;100.00
3254;BME280;1639;42.804;23.342;2023-05-15T03:06:07;73108.78;;;-148.52;100.00
3254;BME280;1639;42.804;23.342;2023-05-15T03:08:32;73129.47;;;-148.52;100.00
3254;BME280;1639;42.804;23.342;2023-05-15T03:10:57;73121.19;;;-148.52;100.00
3254;BME280;1639;42.804;23.342;2023-05-15T03:13:23;73127.41;;;-148.52;100.00
3254;BME280;1639;42.804;23.342;2023-05-15T03:15:48;73119.13;;;-148.52;100.00
3254;BME280;1639;42.804;23.342;2023-05-15T03:18:14;73135.66;;;-148.52;100.00
3254;BME280;1639;42.804;23.342;2023-05-15T03:20:39;73123.25;;;-148.52;100.00
3254;BME280;1639;42.804;23.342;2023-05-15T03:23:04;73121.19;;;-148.52;100.00
3254;BME280;1639;42.804;23.342;2023-05-15T03:25:30;73108.78;;;-148.52;100.00
3254;BME280;1639;42.804;23.342;2023-05-15T03:27:55;73123.25;;;-148.52;100.00
3254;BME280;1639;42.804;23.342;2023-05-15T03:30:21;73110.84;;;-148.52;100.00
3254;BME280;1639;42.804;23.342;2023-05-15T03:32:46;73096.38;;;-148.52;100.00
3254;BME280;1639;42.804;23.342;2023-05-15T03:35:11;73083.97;;;-148.52;100.00
3254;BME280;1639;42.804;23.342;2023-05-15T03:37:37;73092.25;;;-148.52;100.00
3254;BME280;1639;42.804;23.342;2023-05-15T03:40:02;73090.16;;;-148.52;100.00
3254;BME280;1639;42.804;23.342;2023-05-15T03:42:29;73090.16;;;-148.52;100.00
3254;BME280;1639;42.804;23.342;2023-05-15T03:44:54;73088.09;;;-148.52;100.00
3254;BME280;1639;42.804;23.342;2023-05-15T03:47:21;73104.66;;;-148.52;100.00
3254;BME280;1639;42.804;23.342;2023-05-15T03:49:46;73104.66;;;-148.52;100.00
3254;BME280;1639;42.804;23.342;2023-05-15T03:52:12;73096.38;;;-148.52;100.00
3254;BME280;1639;42.804;23.342;2023-05-15T03:54:37;73088.09;;;-148.52;100.00
3254;BME280;1639;42.804;23.342;2023-05-15T03:57:03;73094.31;;;-148.52;100.00
3254;BME280;1639;42.804;23.342;2023-05-15T03:59:29;73079.84;;;-148.52;100.00
3254;BME280;1639;42.804;23.342;2023-05-15T04:01:55;73069.50;;;-148.52;100.00
3254;BME280;1639;42.804;23.342;2023-05-15T04:04:20;73067.41;;;-148.52;100.00
3254;BME280;1639;42.804;23.342;2023-05-15T04:06:46;73061.22;;;-148.52;100.00
3254;BME280;1639;42.804;23.342;2023-05-15T04:09:11;73052.94;;;-148.52;100.00
3254;BME280;1639;42.804;23.342;2023-05-15T04:11:36;73044.66;;;-148.52;100.00
3254;BME280;1639;42.804;23.342;2023-05-15T04:14:02;73042.59;;;-148.52;100.00
3254;BME280;1639;42.804;23.342;2023-05-15T04:16:27;73044.66;;;-148.52;100.00
3254;BME280;1639;42.804;23.342;2023-05-15T04:18:53;73044.66;;;-148.52;100.00
3254;BME280;1639;42.804;23.342;2023-05-15T04:21:18;73048.81;;;-148.52;100.00
3254;BME280;1639;42.804;23.342;2023-05-15T04:23:43;73048.81;;;-148.52;100.00
3254;BME280;1639;42.804;23.342;2023-05-15T04:26:09;73036.41;;;-148.52;100.00
3254;BME280;1639;42.804;23.342;2023-05-15T04:28:34;73034.34;;;-148.52;100.00
3254;BME280;1639;42.804;23.342;2023-05-15T04:31:00;73034.34;;;-148.52;100.00
3254;BME280;1639;42.804;23.342;2023-05-15T04:33:25;73036.41;;;-148.52;100.00
3254;BME280;1639;42.804;23.342;2023-05-15T04:35:51;73034.34;;;-148.52;100.00
3254;BME280;1639;42.804;23.342;2023-05-15T04:38:16;73026.06;;;-148.52;100.00
3254;BME280;1639;42.804;23.342;2023-05-15T04:40:42;73030.19;;;-148.52;100.00
3254;BME280;1639;42.804;23.342;2023-05-15T04:43:08;73030.19;;;-148.52;100.00
3254;BME280;1639;42.804;23.342;2023-05-15T04:45:33;73034.34;;;-148.52;100.00
3254;BME280;1639;42.804;23.342;2023-05-15T04:47:58;73034.34;;;-148.52;100.00
3254;BME280;1639;42.804;23.342;2023-05-15T04:50:24;73024.00;;;-148.52;100.00
3254;BME280;1639;42.804;23.342;2023-05-15T04:52:50;73026.06;;;-148.52;100.00
3254;BME280;1639;42.804;23.342;2023-05-15T04:55:15;73036.41;;;-148.52;100.00
3254;BME280;1639;42.804;23.342;2023-05-15T04:57:41;73036.41;;;-148.52;100.00
3254;BME280;1639;42.804;23.342;2023-05-15T05:00:06;73036.41;;;-148.52;100.00
3254;BME280;1639;42.804;23.342;2023-05-15T05:02:36;73024.00;;;-148.52;100.00
3254;BME280;1639;42.804;23.342;2023-05-15T05:05:02;73030.19;;;-148.52;100.00
3254;BME280;1639;42.804;23.342;2023-05-15T05:07:27;73032.25;;;-148.52;100.00
3254;BME280;1639;42.804;23.342;2023-05-15T05:09:53;73028.13;;;-148.52;100.00
3254;BME280;1639;42.804;23.342;2023-05-15T05:12:18;73019.84;;;-148.52;100.00
3254;BME280;1639;42.804;23.342;2023-05-15T05:14:44;73017.78;;;-148.52;100.00
3254;BME280;1639;42.804;23.342;2023-05-15T05:17:09;73017.78;;;-148.52;100.00
3254;BME280;1639;42.804;23.342;2023-05-15T05:19:35;73026.06;;;-148.52;100.00
3254;BME280;1639;42.804;23.342;2023-05-15T05:22:02;73021.91;;;-148.52;100.00
3254;BME280;1639;42.804;23.342;2023-05-15T05:24:32;73019.84;;;-148.52;100.00
3254;BME280;1639;42.804;23.342;2023-05-15T05:27:00;73026.06;;;-148.52;100.00
3254;BME280;1639;42.804;23.342;2023-05-15T05:29:25;73019.84;;;-148.52;100.00
3254;BME280;1639;42.804;23.342;2023-05-15T05:31:51;73003.31;;;-148.52;100.00
3254;BME280;1639;42.804;23.342;2023-05-15T05:34:18;72980.56;;;-148.52;100.00
3254;BME280;1639;42.804;23.342;2023-05-15T05:36:44;72968.16;;;-148.52;100.00
3254;BME280;1639;42.804;23.342;2023-05-15T05:39:09;72966.06;;;-148.52;100.00
3254;BME280;1639;42.804;23.342;2023-05-15T05:41:34;72964.00;;;-148.52;100.00
3254;BME280;1639;42.804;23.342;2023-05-15T05:44:00;72968.16;;;-148.52;100.00
3254;BME280;1639;42.804;23.342;2023-05-15T05:46:25;72964.00;;;-148.52;100.00
3254;BME280;1639;42.804;23.342;2023-05-15T05:48:51;72970.22;;;-148.52;100.00
3254;BME280;1639;42.804;23.342;2023-05-15T05:51:17;72961.94;;;-148.52;100.00
3254;BME280;1639;42.804;23.342;2023-05-15T05:53:42;72976.41;;;-148.52;100.00
3254;BME280;1639;42.804;23.342;2023-05-15T05:56:07;72961.94;;;-148.52;100.00
3254;BME280;1639;42.804;23.342;2023-05-15T05:58:33;72968.16;;;-148.52;100.00
3254;BME280;1639;42.804;23.342;2023-05-15T06:00:58;72955.75;;;-148.52;100.00
3254;BME280;1639;42.804;23.342;2023-05-15T06:03:25;72949.53;;;-148.52;100.00
3254;BME280;1639;42.804;23.342;2023-05-15T06:05:51;72930.91;;;-148.52;100.00
3254;BME280;1639;42.804;23.342;2023-05-15T06:08:18;72922.66;;;-148.52;100.00
3254;BME280;1639;42.804;23.342;2023-05-15T06:10:43;72906.09;;;-148.52;100.00
3254;BME280;1639;42.804;23.342;2023-05-15T06:13:09;72887.50;;;-148.52;100.00
3254;BME280;1639;42.804;23.342;2023-05-15T06:15:36;72868.88;;;-148.52;100.00
3254;BME280;1639;42.804;23.342;2023-05-15T06:18:01;72827.50;;;-148.52;100.00
3254;BME280;1639;42.804;23.342;2023-05-15T06:20:26;72810.97;;;-148.52;100.00
3254;BME280;1639;42.804;23.342;2023-05-15T06:22:52;72800.63;;;-148.52;100.00
3254;BME280;1639;42.804;23.342;2023-05-15T06:25:17;72786.16;;;-148.52;100.00
3254;BME280;1639;42.804;23.342;2023-05-15T06:27:43;72767.53;;;-148.52;100.00
3254;BME280;1639;42.804;23.342;2023-05-15T06:30:09;72798.56;;;-148.52;100.00
3254;BME280;1639;42.804;23.342;2023-05-15T06:32:34;72798.56;;;-148.52;100.00
3254;BME280;1639;42.804;23.342;2023-05-15T06:35:00;72817.16;;;-148.52;100.00
3254;BME280;1639;42.804;23.342;2023-05-15T06:37:26;72821.31;;;-148.52;100.00
3254;BME280;1639;42.804;23.342;2023-05-15T06:39:53;72819.25;;;-148.52;100.00
3254;BME280;1639;42.804;23.342;2023-05-15T06:42:18;72808.91;;;-148.52;100.00
3254;BME280;1639;42.804;23.342;2023-05-15T06:44:44;72802.69;;;-148.52;100.00
3254;BME280;1639;42.804;23.342;2023-05-15T06:47:09;72796.50;;;-148.52;100.00
3254;BME280;1639;42.804;23.342;2023-05-15T06:49:34;72819.25;;;-148.52;100.00
3254;BME280;1639;42.804;23.342;2023-05-15T06:52:00;72794.41;;;-148.52;100.00
3254;BME280;1639;42.804;23.342;2023-05-15T06:54:25;72790.28;;;-148.52;100.00
3254;BME280;1639;42.804;23.342;2023-05-15T06:56:50;72796.50;;;-148.52;100.00
3254;BME280;1639;42.804;23.342;2023-05-15T06:59:16;72788.22;;;-148.52;100.00
3254;BME280;1639;42.804;23.342;2023-05-15T07:01:41;72761.34;;;-148.52;100.00
3254;BME280;1639;42.804;23.342;2023-05-15T07:04:07;72728.25;;;-148.52;100.00
3254;BME280;1639;42.804;23.342;2023-05-15T07:06:32;72709.63;;;-148.52;100.00
3254;BME280;1639;42.804;23.342;2023-05-15T07:08:58;72678.59;;;-148.52;100.00
3254;BME280;1639;42.804;23.342;2023-05-15T07:11:24;72668.28;;;-148.52;100.00
3254;BME280;1639;42.804;23.342;2023-05-15T07:13:50;72695.16;;;-148.52;100.00
3254;BME280;1639;42.804;23.342;2023-05-15T07:16:16;72703.44;;;-148.52;100.00
3254;BME280;1639;42.804;23.342;2023-05-15T07:18:41;72742.72;;;-148.52;100.00
3254;BME280;1639;42.804;23.342;2023-05-15T07:21:07;72757.19;;;-148.52;100.00
3254;BME280;1639;42.804;23.342;2023-05-15T07:23:32;72765.47;;;-148.52;100.00
3254;BME280;1639;42.804;23.342;2023-05-15T07:25:57;72777.88;;;-148.52;100.00
3254;BME280;1639;42.804;23.342;2023-05-15T07:28:23;72788.22;;;-148.52;100.00
3254;BME280;1639;42.804;23.342;2023-05-15T07:30:48;72771.66;;;-148.52;100.00
3254;BME280;1639;42.804;23.342;2023-05-15T07:33:13;72792.34;;;-148.52;100.00
3254;BME280;1639;42.804;23.342;2023-05-15T07:35:39;72771.66;;;-148.52;100.00
3254;BME280;1639;42.804;23.342;2023-05-15T07:38:04;72775.81;;;-148.52;100.00
3254;BME280;1639;42.804;23.342;2023-05-15T07:40:30;72757.19;;;-148.52;100.00
3254;BME280;1639;42.804;23.342;2023-05-15T07:42:55;72753.06;;;-148.52;100.00
3254;BME280;1639;42.804;23.342;2023-05-15T07:45:21;72759.25;;;-148.52;100.00
3254;BME280;1639;42.804;23.342;2023-05-15T07:47:48;72769.59;;;-148.52;100.00
3254;BME280;1639;42.804;23.342;2023-05-15T07:50:14;72748.91;;;-148.52;100.00
3254;BME280;1639;42.804;23.342;2023-05-15T07:52:40;72728.25;;;-148.52;100.00
3254;BME280;1639;42.804;23.342;2023-05-15T07:55:06;72748.91;;;-148.52;100.00
3254;BME280;1639;42.804;23.342;2023-05-15T07:57:32;72740.66;;;-148.52;100.00
3254;BME280;1639;42.804;23.342;2023-05-15T07:59:57;72748.91;;;-148.52;100.00
3254;BME280;1639;42.804;23.342;2023-05-15T08:02:23;72748.91;;;-148.52;100.00
3254;BME280;1639;42.804;23.342;2023-05-15T08:04:48;72742.72;;;-148.52;100.00
3254;BME280;1639;42.804;23.342;2023-05-15T08:07:14;72730.31;;;-148.52;100.00
3254;BME280;1639;42.804;23.342;2023-05-15T08:09:40;72738.59;;;-148.52;100.00
3254;BME280;1639;42.804;23.342;2023-05-15T08:12:20;72769.59;;;-148.52;100.00
3254;BME280;1639;42.804;23.342;2023-05-15T08:14:51;72775.81;;;-148.52;100.00
3254;BME280;1639;42.804;23.342;2023-05-15T08:17:17;72786.16;;;-148.52;100.00
3254;BME280;1639;42.804;23.342;2023-05-15T08:19:43;72788.22;;;-148.52;100.00
3254;BME280;1639;42.804;23.342;2023-05-15T08:22:08;72782.00;;;-148.52;100.00
3254;BME280;1639;42.804;23.342;2023-05-15T08:24:34;72777.88;;;-148.52;100.00
3254;BME280;1639;42.804;23.342;2023-05-15T08:26:59;72767.53;;;-148.52;100.00
3254;BME280;1639;42.804;23.342;2023-05-15T08:29:24;72763.41;;;-148.52;100.00
3254;BME280;1639;42.804;23.342;2023-05-15T08:31:50;72767.53;;;-148.52;100.00
3254;BME280;1639;42.804;23.342;2023-05-15T08:34:16;72771.66;;;-148.52;100.00
3254;BME280;1639;42.804;23.342;2023-05-15T08:36:41;72782.00;;;-148.52;100.00
3254;BME280;1639;42.804;23.342;2023-05-15T08:39:06;72773.75;;;-148.52;100.00
3254;BME280;1639;42.804;23.342;2023-05-15T08:41:37;72786.16;;;-148.52;100.00
3254;BME280;1639;42.804;23.342;2023-05-15T08:44:05;72782.00;;;-148.52;100.00
3254;BME280;1639;42.804;23.342;2023-05-15T08:46:33;72794.41;;;-148.52;100.00
3254;BME280;1639;42.804;23.342;2023-05-15T08:49:02;72786.16;;;-148.52;100.00
3254;BME280;1639;42.804;23.342;2023-05-15T08:51:31;72790.28;;;-148.52;100.00
3254;BME280;1639;42.804;23.342;2023-05-15T08:53:57;72786.16;;;-148.52;100.00
3254;BME280;1639;42.804;23.342;2023-05-15T08:56:22;72786.16;;;-148.52;100.00
3254;BME280;1639;42.804;23.342;2023-05-15T08:58:48;72784.09;;;-148.52;100.00
3254;BME280;1639;42.804;23.342;2023-05-15T09:01:14;72794.41;;;-148.52;100.00
3254;BME280;1639;42.804;23.342;2023-05-15T09:03:40;72798.56;;;-148.52;100.00
3254;BME280;1639;42.804;23.342;2023-05-15T09:06:06;72775.81;;;-148.52;100.00
3254;BME280;1639;42.804;23.342;2023-05-15T09:08:33;72777.88;;;-148.52;100.00
3254;BME280;1639;42.804;23.342;2023-05-15T09:11:01;72765.47;;;-148.52;100.00
3254;BME280;1639;42.804;23.342;2023-05-15T09:13:28;72773.75;;;-148.52;100.00
3254;BME280;1639;42.804;23.342;2023-05-15T09:15:54;72757.19;;;-148.52;100.00
3254;BME280;1639;42.804;23.342;2023-05-15T09:18:20;72748.91;;;-148.52;100.00
3254;BME280;1639;42.804;23.342;2023-05-15T09:20:46;72738.59;;;-148.52;100.00
3254;BME280;1639;42.804;23.342;2023-05-15T09:23:23;72734.44;;;-148.52;100.00
3254;BME280;1639;42.804;23.342;2023-05-15T09:25:49;72722.03;;;-148.52;100.00
3254;BME280;1639;42.804;23.342;2023-05-15T09:28:28;72703.44;;;-148.52;100.00
3254;BME280;1639;42.804;23.342;2023-05-15T09:31:02;72674.47;;;-148.52;100.00
3254;BME280;1639;42.804;23.342;2023-05-15T09:33:32;72674.47;;;-148.52;100.00
3254;BME280;1639;42.804;23.342;2023-05-15T09:35:58;72647.59;;;-148.52;100.00
3254;BME280;1639;42.804;23.342;2023-05-15T09:38:24;72633.13;;;-148.52;100.00
3254;BME280;1639;42.804;23.342;2023-05-15T09:40:49;72628.97;;;-148.52;100.00
3254;BME280;1639;42.804;23.342;2023-05-15T09:43:15;72624.84;;;-148.52;100.00
3254;BME280;1639;42.804;23.342;2023-05-15T09:45:41;72616.56;;;-148.52;100.00
3254;BME280;1639;42.804;23.342;2023-05-15T09:48:07;72597.97;;;-148.52;100.00
3254;BME280;1639;42.804;23.342;2023-05-15T09:50:37;72589.69;;;-148.52;100.00
3254;BME280;1639;42.804;23.342;2023-05-15T09:53:04;72569.00;;;-148.52;100.00
3254;BME280;1639;42.804;23.342;2023-05-15T09:55:33;72560.72;;;-148.52;100.00
3254;BME280;1639;42.804;23.342;2023-05-15T09:58:08;72554.53;;;-148.52;100.00
3254;BME280;1639;42.804;23.342;2023-05-15T10:00:36;72558.66;;;-148.52;100.00
3254;BME280;1639;42.804;23.342;2023-05-15T10:03:02;72564.88;;;-148.52;100.00
3254;BME280;1639;42.804;23.342;2023-05-15T10:05:29;72566.94;;;-148.52;100.00
3254;BME280;1639;42.804;23.342;2023-05-15T10:07:55;72587.63;;;-148.52;100.00
3254;BME280;1639;42.804;23.342;2023-05-15T10:10:21;72560.72;;;-148.52;100.00
3254;BME280;1639;42.804;23.342;2023-05-15T10:12:49;72546.25;;;-148.52;100.00
3254;BME280;1639;42.804;23.342;2023-05-15T10:15:16;72527.66;;;-148.52;100.00
3254;BME280;1639;42.804;23.342;2023-05-15T10:17:42;72535.91;;;-148.52;100.00
3254;BME280;1639;42.804;23.342;2023-05-15T10:20:09;72542.13;;;-148.52;100.00
3254;BME280;1639;42.804;23.342;2023-05-15T10:22:39;72542.13;;;-148.52;100.00
3254;BME280;1639;42.804;23.342;2023-05-15T10:27:33;72540.06;;;-148.52;100.00
3254;BME280;1639;42.804;23.342;2023-05-15T10:30:02;72550.38;;;-148.52;100.00
3254;BME280;1639;42.804;23.342;2023-05-15T10:32:29;72548.31;;;-148.52;100.00
3254;BME280;1639;42.804;23.342;2023-05-15T10:34:55;72533.84;;;-148.52;100.00
3254;BME280;1639;42.804;23.342;2023-05-15T10:37:21;72527.66;;;-148.52;100.00
3254;BME280;1639;42.804;23.342;2023-05-15T10:39:48;72533.84;;;-148.52;100.00
3254;BME280;1639;42.804;23.342;2023-05-15T10:42:15;72540.06;;;-148.52;100.00
3254;BME280;1639;42.804;23.342;2023-05-15T10:44:41;72531.78;;;-148.52;100.00
3254;BME280;1639;42.804;23.342;2023-05-15T10:47:07;72550.38;;;-148.52;100.00
3254;BME280;1639;42.804;23.342;2023-05-15T10:49:33;72546.25;;;-148.52;100.00
3254;BME280;1639;42.804;23.342;2023-05-15T10:52:00;72552.47;;;-148.52;100.00
3254;BME280;1639;42.804;23.342;2023-05-15T10:54:27;72550.38;;;-148.52;100.00
3254;BME280;1639;42.804;23.342;2023-05-15T10:56:54;72571.06;;;-148.52;100.00
3254;BME280;1639;42.804;23.342;2023-05-15T10:59:20;72562.81;;;-148.52;100.00
3254;BME280;1639;42.804;23.342;2023-05-15T11:01:45;72540.06;;;-148.52;100.00
3254;BME280;1639;42.804;23.342;2023-05-15T11:04:16;72521.44;;;-148.52;100.00
3254;BME280;1639;42.804;23.342;2023-05-15T11:06:43;72517.31;;;-148.52;100.00
3254;BME280;1639;42.804;23.342;2023-05-15T11:14:22;72519.38;;;-148.52;100.00
3254;BME280;1639;42.804;23.342;2023-05-15T11:24:32;72548.31;;;-148.52;100.00
3254;BME280;1639;42.804;23.342;2023-05-15T11:27:02;72552.47;;;-148.52;100.00
3254;BME280;1639;42.804;23.342;2023-05-15T11:29:28;72544.19;;;-148.52;100.00
3254;BME280;1639;42.804;23.342;2023-05-15T11:31:54;72535.91;;;-148.52;100.00
3254;BME280;1639;42.804;23.342;2023-05-15T11:34:32;72519.38;;;-148.52;100.00
3254;BME280;1639;42.804;23.342;2023-05-15T11:36:58;72523.50;;;-148.52;100.00
3254;BME280;1639;42.804;23.342;2023-05-15T11:39:25;72531.78;;;-148.52;100.00
3254;BME280;1639;42.804;23.342;2023-05-15T11:41:51;72529.72;;;-148.52;100.00
3254;BME280;1639;42.804;23.342;2023-05-15T11:44:23;72535.91;;;-148.52;100.00
3254;BME280;1639;42.804;23.342;2023-05-15T11:46:52;72531.78;;;-148.52;100.00
3254;BME280;1639;42.804;23.342;2023-05-15T11:49:18;72523.50;;;-148.52;100.00
3254;BME280;1639;42.804;23.342;2023-05-15T11:51:44;72529.72;;;-148.52;100.00
3254;BME280;1639;42.804;23.342;2023-05-15T11:54:10;72506.97;;;-148.52;100.00
3254;BME280;1639;42.804;23.342;2023-05-15T11:56:41;72486.28;;;-148.52;100.00
3254;BME280;1639;42.804;23.342;2023-05-15T11:59:09;72496.63;;;-148.52;100.00
3254;BME280;1639;42.804;23.342;2023-05-15T12:01:40;72492.50;;;-148.52;100.00
3254;BME280;1639;42.804;23.342;2023-05-15T12:04:16;72467.66;;;-148.52;100.00
3254;BME280;1639;42.804;23.342;2023-05-15T12:06:42;72444.94;;;-148.52;100.00
3254;BME280;1639;42.804;23.342;2023-05-15T12:09:16;72444.94;;;-148.52;100.00
3254;BME280;1639;42.804;23.342;2023-05-15T12:11:55;72447.00;;;-148.52;100.00
3254;BME280;1639;42.804;23.342;2023-05-15T12:14:30;72434.59;;;-148.52;100.00
3254;BME280;1639;42.804;23.342;2023-05-15T12:17:02;72430.44;;;-148.52;100.00
3254;BME280;1639;42.804;23.342;2023-05-15T12:19:33;72447.00;;;-148.52;100.00
3254;BME280;1639;42.804;23.342;2023-05-15T12:21:58;72430.44;;;-148.52;100.00
3254;BME280;1639;42.804;23.342;2023-05-15T12:24:25;72428.38;;;-148.52;100.00
3254;BME280;1639;42.804;23.342;2023-05-15T12:26:50;72438.72;;;-148.52;100.00
3254;BME280;1639;42.804;23.342;2023-05-15T12:29:16;72430.44;;;-148.52;100.00
3254;BME280;1639;42.804;23.342;2023-05-15T12:31:42;72415.97;;;-148.52;100.00
3254;BME280;1639;42.804;23.342;2023-05-15T12:34:08;72389.09;;;-148.52;100.00
3254;BME280;1639;42.804;23.342;2023-05-15T12:36:33;72374.63;;;-148.52;100.00
3254;BME280;1639;42.804;23.342;2023-05-15T12:39:04;72360.13;;;-148.52;100.00
3254;BME280;1639;42.804;23.342;2023-05-15T12:41:30;72376.69;;;-148.52;100.00
3254;BME280;1639;42.804;23.342;2023-05-15T12:43:55;72391.16;;;-148.52;100.00
3254;BME280;1639;42.804;23.342;2023-05-15T12:46:22;72399.44;;;-148.52;100.00
3254;BME280;1639;42.804;23.342;2023-05-15T12:48:48;72374.63;;;-148.52;100.00
3254;BME280;1639;42.804;23.342;2023-05-15T12:51:16;72351.88;;;-148.52;100.00
3254;BME280;1639;42.804;23.342;2023-05-15T12:53:41;72335.31;;;-148.52;100.00
3254;BME280;1639;42.804;23.342;2023-05-15T12:56:07;72320.84;;;-148.52;100.00
3254;BME280;1639;42.804;23.342;2023-05-15T12:58:34;72300.16;;;-148.52;100.00
3254;BME280;1639;42.804;23.342;2023-05-15T13:00:59;72271.22;;;-148.52;100.00
3254;BME280;1639;42.804;23.342;2023-05-15T13:03:27;72273.28;;;-148.52;100.00